createdAt,value
2017-07-09T00:00:07.491Z,18.97
2017-07-09T00:02:34.967Z,21.07
2017-07-09T00:05:02.559Z,19.10
2017-07-09T00:07:30.105Z,19.03
2017-07-09T00:09:57.654Z,19.27
2017-07-09T00:12:25.124Z,22.53
2017-07-09T00:14:53.905Z,19.90
2017-07-09T00:17:21.660Z,19.70
2017-07-09T00:19:49.147Z,20.40
2017-07-09T00:22:16.686Z,20.03
2017-07-09T00:24:44.164Z,18.67
2017-07-09T00:27:11.618Z,19.00
2017-07-09T00:29:40.011Z,18.37
2017-07-09T00:32:07.550Z,20.50
2017-07-09T00:34:35.033Z,17.83
2017-07-09T00:37:02.559Z,19.77
2017-07-09T00:39:30.039Z,20.50
2017-07-09T00:41:57.504Z,21.40
2017-07-09T00:44:25.004Z,20.50
2017-07-09T00:46:52.533Z,19.50
2017-07-09T00:49:20.019Z,24.27
2017-07-09T00:51:47.592Z,19.27
2017-07-09T00:54:15.148Z,23.73
2017-07-09T00:56:42.631Z,20.63
2017-07-09T00:59:10.257Z,25.07
2017-07-09T01:01:37.748Z,19.47
2017-07-09T01:04:05.219Z,18.97
2017-07-09T01:06:32.849Z,21.10
2017-07-09T01:09:00.409Z,17.20
2017-07-09T01:11:27.951Z,22.40
2017-07-09T01:13:55.545Z,19.20
2017-07-09T01:16:23.001Z,18.50
2017-07-09T01:18:51.303Z,19.17
2017-07-09T01:21:18.835Z,16.93
2017-07-09T01:23:46.404Z,16.33
2017-07-09T01:26:13.934Z,14.43
2017-07-09T01:28:41.724Z,17.07
2017-07-09T01:31:11.060Z,15.57
2017-07-09T01:33:39.505Z,14.87
2017-07-09T01:36:07.880Z,14.80
2017-07-09T01:38:35.512Z,14.47
2017-07-09T01:41:03.105Z,13.63
2017-07-09T01:43:30.930Z,15.40
2017-07-09T01:45:59.230Z,14.90
2017-07-09T01:48:26.893Z,16.47
2017-07-09T01:50:54.380Z,14.50
2017-07-09T01:53:21.888Z,15.07
2017-07-09T01:55:49.488Z,16.47
2017-07-09T01:58:17.070Z,16.90
2017-07-09T02:00:44.551Z,14.33
2017-07-09T02:03:12.008Z,13.00
2017-07-09T02:05:39.531Z,21.43
2017-07-09T02:10:41.139Z,15.10
2017-07-09T02:13:08.603Z,12.77
2017-07-09T02:15:36.136Z,11.70
2017-07-09T02:18:03.751Z,14.10
2017-07-09T02:20:31.277Z,12.70
2017-07-09T02:22:58.784Z,11.93
2017-07-09T02:25:26.305Z,12.03
2017-07-09T02:27:53.912Z,11.97
2017-07-09T02:30:22.313Z,14.00
2017-07-09T02:32:51.082Z,13.80
2017-07-09T02:35:19.453Z,10.50
2017-07-09T02:37:47.012Z,10.03
2017-07-09T02:40:15.260Z,10.77
2017-07-09T02:42:42.715Z,10.60
2017-07-09T02:45:10.239Z,10.73
2017-07-09T02:47:37.746Z,11.37
2017-07-09T02:50:05.185Z,11.37
2017-07-09T02:52:32.670Z,9.73
2017-07-09T02:55:00.193Z,10.70
2017-07-09T02:57:27.805Z,15.73
2017-07-09T02:59:55.402Z,10.30
2017-07-09T03:02:23.885Z,10.50
2017-07-09T03:04:51.465Z,10.43
2017-07-09T03:07:19.075Z,12.30
2017-07-09T03:09:46.644Z,10.13
2017-07-09T03:12:14.194Z,10.63
2017-07-09T03:14:42.514Z,10.57
2017-07-09T03:17:10.023Z,11.13
2017-07-09T03:19:37.757Z,12.33
2017-07-09T03:22:05.229Z,11.10
2017-07-09T03:24:32.777Z,15.13
2017-07-09T03:27:00.311Z,10.80
2017-07-09T03:29:27.799Z,9.67
2017-07-09T03:31:56.541Z,11.70
2017-07-09T03:34:24.130Z,12.13
2017-07-09T03:36:51.644Z,9.97
2017-07-09T03:39:19.163Z,11.77
2017-07-09T03:41:46.816Z,12.63
2017-07-09T03:44:15.167Z,14.30
2017-07-09T03:46:42.920Z,11.37
2017-07-09T03:49:10.406Z,11.07
2017-07-09T03:51:37.891Z,10.20
2017-07-09T03:54:06.320Z,8.87
2017-07-09T03:56:33.777Z,10.40
2017-07-09T03:59:01.229Z,10.57
2017-07-09T04:01:28.727Z,12.67
2017-07-09T04:03:56.286Z,10.60
2017-07-09T04:06:23.768Z,9.63
2017-07-09T04:08:51.404Z,9.87
2017-07-09T04:11:19.086Z,9.30
2017-07-09T04:13:46.555Z,11.20
2017-07-09T04:16:14.076Z,10.63
2017-07-09T04:18:41.623Z,9.00
2017-07-09T04:21:09.101Z,9.03
2017-07-09T04:23:36.708Z,10.13
2017-07-09T04:26:04.176Z,8.50
2017-07-09T04:28:31.668Z,10.73
2017-07-09T04:30:59.207Z,9.97
2017-07-09T04:33:26.873Z,9.87
2017-07-09T04:35:54.391Z,10.37
2017-07-09T04:38:22.084Z,9.97
2017-07-09T04:40:49.618Z,9.10
2017-07-09T04:43:17.160Z,8.30
2017-07-09T04:45:44.679Z,10.57
2017-07-09T04:48:12.375Z,9.73
2017-07-09T04:50:39.855Z,9.23
2017-07-09T04:53:07.352Z,9.37
2017-07-09T04:55:34.812Z,11.27
2017-07-09T04:58:02.278Z,10.27
2017-07-09T05:00:30.188Z,9.07
2017-07-09T05:02:58.409Z,9.53
2017-07-09T05:05:25.920Z,8.47
2017-07-09T05:07:53.533Z,11.13
2017-07-09T05:10:21.452Z,9.33
2017-07-09T05:12:48.957Z,9.70
2017-07-09T05:15:16.738Z,10.20
2017-07-09T05:17:44.332Z,9.77
2017-07-09T05:20:11.876Z,11.17
2017-07-09T05:22:39.650Z,13.43
2017-07-09T05:25:07.884Z,10.20
2017-07-09T05:27:35.657Z,10.07
2017-07-09T05:30:03.945Z,10.40
2017-07-09T05:32:33.074Z,8.90
2017-07-09T05:35:00.649Z,12.53
2017-07-09T05:37:29.009Z,9.50
2017-07-09T05:39:56.524Z,11.50
2017-07-09T05:42:24.091Z,9.33
2017-07-09T05:44:51.587Z,8.73
2017-07-09T05:47:19.057Z,10.30
2017-07-09T05:49:46.839Z,11.07
2017-07-09T05:52:17.348Z,12.83
2017-07-09T05:54:44.864Z,10.40
2017-07-09T05:57:14.228Z,8.90
2017-07-09T05:59:41.693Z,12.03
2017-07-09T06:02:09.177Z,9.93
2017-07-09T06:04:37.086Z,9.80
2017-07-09T06:07:04.551Z,9.03
2017-07-09T06:09:32.090Z,9.60
2017-07-09T06:11:59.590Z,12.37
2017-07-09T06:14:27.115Z,13.40
2017-07-09T06:16:56.255Z,11.60
2017-07-09T06:19:23.756Z,10.47
2017-07-09T06:21:51.264Z,10.03
2017-07-09T06:24:18.835Z,8.43
2017-07-09T06:26:46.744Z,10.40
2017-07-09T06:29:15.165Z,9.50
2017-07-09T06:31:42.997Z,10.50
2017-07-09T06:34:11.441Z,9.60
2017-07-09T06:36:38.909Z,8.73
2017-07-09T06:39:06.464Z,14.93
2017-07-09T06:41:34.097Z,13.03
2017-07-09T06:44:01.655Z,10.67
2017-07-09T06:46:30.078Z,12.10
2017-07-09T06:48:57.688Z,12.10
2017-07-09T06:51:25.569Z,9.87
2017-07-09T06:53:53.246Z,10.23
2017-07-09T06:56:20.762Z,10.23
2017-07-09T06:58:48.628Z,12.30
2017-07-09T07:01:16.123Z,11.00
2017-07-09T07:03:43.718Z,12.90
2017-07-09T07:06:11.379Z,12.23
2017-07-09T07:08:39.057Z,12.67
2017-07-09T07:11:06.732Z,12.17
2017-07-09T07:13:34.673Z,11.03
2017-07-09T07:16:02.471Z,17.73
2017-07-09T07:18:30.654Z,11.87
2017-07-09T07:20:58.366Z,10.30
2017-07-09T07:23:25.960Z,12.83
2017-07-09T07:25:53.522Z,10.57
2017-07-09T07:28:21.069Z,11.70
2017-07-09T07:30:50.739Z,14.90
2017-07-09T07:33:18.315Z,15.63
2017-07-09T07:35:46.003Z,17.47
2017-07-09T07:38:14.544Z,17.47
2017-07-09T07:40:42.146Z,14.13
2017-07-09T07:43:10.888Z,15.47
2017-07-09T07:45:38.345Z,15.60
2017-07-09T07:48:05.875Z,16.43
2017-07-09T07:50:33.540Z,17.50
2017-07-09T07:53:01.253Z,16.40
2017-07-09T07:55:28.918Z,15.50
2017-07-09T07:57:56.495Z,23.00
2017-07-09T08:00:24.047Z,21.73
2017-07-09T08:02:56.193Z,19.87
2017-07-09T08:05:23.700Z,20.60
2017-07-09T08:07:51.345Z,18.40
2017-07-09T08:10:19.654Z,19.60
2017-07-09T08:12:47.265Z,17.40
2017-07-09T08:15:14.829Z,23.13
2017-07-09T08:17:42.982Z,18.20
2017-07-09T08:20:10.494Z,18.87
2017-07-09T08:22:38.061Z,23.13
2017-07-09T08:25:06.523Z,19.20
2017-07-09T08:27:35.526Z,20.80
2017-07-09T08:30:03.198Z,17.53
2017-07-09T08:32:30.797Z,20.23
2017-07-09T08:35:00.174Z,24.80
2017-07-09T08:37:30.707Z,19.80
2017-07-09T08:40:02.958Z,19.50
2017-07-09T08:42:30.560Z,20.17
2017-07-09T08:44:58.156Z,20.87
2017-07-09T08:47:29.651Z,24.33
2017-07-09T08:49:58.296Z,19.20
2017-07-09T08:52:25.913Z,20.10
2017-07-09T08:54:54.677Z,21.70
2017-07-09T08:57:22.199Z,22.07
2017-07-09T08:59:50.389Z,21.97
2017-07-09T09:02:18.128Z,30.97
2017-07-09T09:04:45.841Z,26.67
2017-07-09T09:07:13.485Z,22.57
2017-07-09T09:09:41.531Z,21.40
2017-07-09T09:12:09.065Z,24.30
2017-07-09T09:14:36.532Z,26.43
2017-07-09T09:17:04.893Z,21.13
2017-07-09T09:19:33.510Z,21.53
2017-07-09T09:22:01.006Z,24.20
2017-07-09T09:24:28.632Z,20.70
2017-07-09T09:29:54.554Z,22.50
2017-07-09T09:32:22.980Z,26.17
2017-07-09T09:34:51.522Z,20.47
2017-07-09T09:37:19.073Z,22.30
2017-07-09T09:39:46.609Z,21.13
2017-07-09T09:42:14.632Z,23.40
2017-07-09T09:44:43.159Z,22.77
2017-07-09T09:47:12.707Z,19.07
2017-07-09T09:49:41.455Z,19.03
2017-07-09T09:52:09.041Z,20.17
2017-07-09T09:54:38.012Z,22.60
2017-07-09T09:57:14.884Z,21.03
2017-07-09T09:59:42.440Z,20.50
2017-07-09T10:02:09.908Z,21.73
2017-07-09T10:04:37.553Z,19.03
2017-07-09T10:07:05.125Z,19.77
2017-07-09T10:09:36.313Z,18.90
2017-07-09T10:12:03.874Z,21.10
2017-07-09T10:14:32.262Z,19.40
2017-07-09T10:17:00.653Z,18.83
2017-07-09T10:19:28.324Z,21.90
2017-07-09T10:22:00.041Z,21.27
2017-07-09T10:24:27.672Z,22.60
2017-07-09T10:26:55.527Z,19.73
2017-07-09T10:29:23.137Z,19.30
2017-07-09T10:31:50.817Z,19.93
2017-07-09T10:34:19.262Z,23.77
2017-07-09T10:36:46.934Z,22.80
2017-07-09T10:39:14.515Z,17.07
2017-07-09T10:41:42.989Z,20.10
2017-07-09T10:44:10.570Z,19.20
2017-07-09T10:46:39.483Z,18.83
2017-07-09T10:49:07.718Z,20.77
2017-07-09T10:51:35.300Z,20.23
2017-07-09T10:54:03.849Z,17.13
2017-07-09T10:56:32.181Z,20.27
2017-07-09T10:59:00.997Z,17.90
2017-07-09T11:01:28.670Z,19.73
2017-07-09T11:03:57.071Z,18.07
2017-07-09T11:06:24.661Z,20.60
2017-07-09T11:08:53.077Z,19.33
2017-07-09T11:11:21.334Z,20.90
2017-07-09T11:13:48.927Z,20.10
2017-07-09T11:16:17.361Z,23.60
2017-07-09T11:18:44.953Z,23.07
2017-07-09T11:21:12.588Z,21.30
2017-07-09T11:23:40.155Z,20.00
2017-07-09T11:26:07.999Z,22.37
2017-07-09T11:28:36.326Z,19.50
2017-07-09T11:31:04.008Z,19.73
2017-07-09T11:33:33.933Z,18.90
2017-07-09T11:36:02.244Z,18.87
2017-07-09T11:38:30.677Z,20.10
2017-07-09T11:41:02.994Z,18.33
2017-07-09T11:43:31.912Z,15.87
2017-07-09T11:46:01.660Z,19.80
2017-07-09T11:48:29.140Z,20.43
2017-07-09T11:50:56.781Z,23.70
2017-07-09T11:53:24.326Z,24.70
2017-07-09T11:55:51.811Z,22.43
2017-07-09T11:58:19.546Z,24.90
2017-07-09T12:00:47.652Z,24.63
2017-07-09T12:03:16.103Z,25.03
2017-07-09T12:05:43.800Z,27.73
2017-07-09T12:08:11.715Z,27.57
2017-07-09T12:10:40.224Z,26.97
2017-07-09T12:13:08.100Z,23.80
2017-07-09T12:15:36.682Z,25.63
2017-07-09T12:18:11.191Z,24.33
2017-07-09T12:20:38.734Z,23.13
2017-07-09T12:23:06.240Z,26.07
2017-07-09T12:25:33.720Z,22.07
2017-07-09T12:28:04.958Z,22.70
2017-07-09T12:30:33.309Z,21.07
2017-07-09T12:33:01.110Z,23.20
2017-07-09T12:35:28.792Z,23.83
2017-07-09T12:37:56.408Z,21.27
2017-07-09T12:40:24.798Z,22.33
2017-07-09T12:42:53.065Z,24.70
2017-07-09T12:45:21.953Z,24.80
2017-07-09T12:47:59.359Z,23.30
2017-07-09T12:50:27.147Z,20.17
2017-07-09T12:52:57.488Z,20.00
2017-07-09T12:55:25.542Z,22.27
2017-07-09T12:57:55.253Z,25.17
2017-07-09T13:03:27.777Z,21.57
2017-07-09T13:08:55.850Z,19.27
2017-07-09T13:11:25.120Z,17.97
2017-07-09T13:13:54.053Z,17.67
2017-07-09T13:16:21.762Z,21.27
2017-07-09T13:18:51.401Z,19.67
2017-07-09T13:21:21.301Z,19.40
2017-07-09T13:23:56.377Z,18.77
2017-07-09T13:26:24.518Z,17.30
2017-07-09T13:28:53.083Z,21.47
2017-07-09T13:31:20.642Z,23.03
2017-07-09T13:33:52.157Z,16.47
2017-07-09T13:36:19.714Z,21.03
2017-07-09T13:38:51.134Z,20.20
2017-07-09T13:41:20.093Z,18.03
2017-07-09T13:43:48.292Z,18.80
2017-07-09T13:46:17.540Z,16.40
2017-07-09T13:48:45.148Z,17.40
2017-07-09T13:51:13.441Z,16.17
2017-07-09T13:53:41.168Z,15.60
2017-07-09T13:56:09.888Z,15.83
2017-07-09T13:58:41.147Z,15.47
2017-07-09T14:01:10.128Z,13.60
2017-07-09T14:03:39.926Z,14.73
2017-07-09T14:06:08.662Z,14.70
2017-07-09T14:08:58.810Z,12.10
2017-07-09T14:11:34.975Z,13.60
2017-07-09T14:14:03.433Z,13.37
2017-07-09T14:16:33.535Z,15.00
2017-07-09T14:19:08.218Z,13.27
2017-07-09T14:21:38.075Z,12.53
2017-07-09T14:24:05.881Z,12.87
2017-07-09T14:26:35.470Z,13.37
2017-07-09T14:29:03.844Z,12.47
2017-07-09T14:31:36.636Z,12.67
2017-07-09T14:34:06.619Z,16.03
2017-07-09T14:36:34.921Z,12.83
2017-07-09T14:39:02.549Z,16.97
2017-07-09T14:44:10.926Z,12.80
2017-07-09T14:46:40.843Z,14.77
2017-07-09T14:49:09.430Z,12.20
2017-07-09T14:51:38.014Z,18.87
2017-07-09T14:54:07.091Z,12.57
2017-07-09T14:56:34.872Z,12.07
2017-07-09T14:59:02.369Z,26.90
2017-07-09T15:01:30.071Z,12.20
2017-07-09T15:03:57.633Z,11.63
2017-07-09T15:06:25.239Z,13.87
2017-07-09T15:08:53.502Z,15.63
2017-07-09T15:11:22.223Z,11.30
2017-07-09T15:14:00.348Z,11.13
2017-07-09T15:16:28.828Z,11.40
2017-07-09T15:19:00.235Z,11.80
2017-07-09T15:21:29.411Z,10.63
2017-07-09T15:23:59.312Z,11.50
2017-07-09T15:26:39.801Z,11.40
2017-07-09T15:29:22.855Z,14.67
2017-07-09T15:31:51.486Z,16.47
2017-07-09T15:34:22.019Z,13.53
2017-07-09T15:36:59.891Z,13.03
2017-07-09T15:39:34.372Z,12.10
2017-07-09T15:42:04.893Z,10.20
2017-07-09T15:44:33.320Z,11.97
2017-07-09T15:47:10.058Z,10.97
2017-07-09T15:49:37.715Z,28.50
2017-07-09T15:52:05.298Z,10.10
2017-07-09T15:54:34.791Z,10.73
2017-07-09T15:57:03.761Z,10.53
2017-07-09T15:59:32.923Z,11.27
2017-07-09T16:02:01.391Z,11.83
2017-07-09T16:04:32.997Z,11.83
2017-07-09T16:07:02.081Z,12.37
2017-07-09T16:09:31.396Z,12.50
2017-07-09T16:11:59.522Z,11.33
2017-07-09T16:14:28.252Z,12.97
2017-07-09T16:16:57.627Z,12.17
2017-07-09T16:19:28.732Z,12.10
2017-07-09T16:21:57.152Z,12.50
2017-07-09T16:24:24.969Z,12.17
2017-07-09T16:26:52.880Z,12.87
2017-07-09T16:29:22.982Z,10.80
2017-07-09T16:34:43.956Z,11.33
2017-07-09T16:37:18.609Z,13.30
2017-07-09T16:39:51.222Z,13.70
2017-07-09T16:42:29.689Z,12.23
2017-07-09T16:45:06.413Z,13.37
2017-07-09T16:48:16.477Z,11.73
2017-07-09T16:51:48.783Z,13.20
2017-07-09T17:01:56.480Z,11.07
2017-07-09T17:04:30.974Z,12.00
2017-07-09T17:07:19.373Z,11.90
2017-07-09T17:12:36.206Z,17.40
2017-07-09T17:15:07.916Z,13.10
2017-07-09T17:17:37.750Z,11.50
2017-07-09T17:23:10.383Z,12.77
2017-07-09T17:25:38.750Z,12.17
2017-07-09T17:28:12.303Z,11.07
2017-07-09T17:30:42.357Z,12.67
2017-07-09T17:33:16.667Z,12.77
2017-07-09T17:35:44.847Z,11.90
2017-07-09T17:38:17.856Z,12.50
2017-07-09T17:40:49.053Z,11.83
2017-07-09T17:46:40.172Z,14.27
2017-07-09T17:49:11.408Z,17.33
2017-07-09T17:51:41.662Z,14.40
2017-07-09T17:54:19.281Z,13.53
2017-07-09T17:57:23.808Z,14.27
2017-07-09T17:59:57.974Z,16.60
2017-07-09T18:02:28.859Z,14.53
2017-07-09T18:04:58.061Z,17.07
2017-07-09T18:07:27.585Z,13.70
2017-07-09T18:09:57.294Z,15.37
2017-07-09T18:12:26.041Z,16.70
2017-07-09T18:15:01.818Z,16.93
2017-07-09T18:17:30.004Z,17.70
2017-07-09T18:19:59.856Z,23.70
2017-07-09T18:22:28.407Z,22.40
2017-07-09T18:24:57.405Z,14.37
2017-07-09T18:27:28.722Z,15.17
2017-07-09T18:29:57.165Z,16.97
2017-07-09T18:32:29.953Z,14.73
2017-07-09T18:34:59.037Z,15.93
2017-07-09T18:37:27.448Z,14.40
2017-07-09T18:39:56.085Z,16.57
2017-07-09T18:42:25.637Z,15.00
2017-07-09T18:44:53.274Z,17.70
2017-07-09T18:47:21.018Z,14.20
2017-07-09T18:49:49.639Z,18.20
2017-07-09T18:52:19.356Z,20.47
2017-07-09T18:54:48.734Z,18.83
2017-07-09T18:57:17.623Z,15.10
2017-07-09T18:59:53.017Z,13.23
2017-07-09T19:02:22.285Z,12.73
2017-07-09T19:05:32.269Z,14.17
2017-07-09T19:08:12.202Z,13.80
2017-07-09T19:10:54.943Z,13.10
2017-07-09T19:13:24.054Z,13.63
2017-07-09T19:18:51.286Z,14.80
2017-07-09T19:21:19.411Z,15.30
2017-07-09T19:29:48.913Z,13.20
2017-07-09T19:32:29.206Z,12.63
2017-07-09T19:35:05.255Z,12.77
2017-07-09T19:37:33.381Z,13.20
2017-07-09T19:40:04.923Z,11.07
2017-07-09T19:43:14.461Z,12.03
2017-07-09T19:45:45.417Z,10.80
2017-07-09T19:48:14.549Z,15.97
2017-07-09T19:50:43.466Z,12.90
2017-07-09T19:53:11.816Z,13.57
2017-07-09T19:56:10.243Z,13.53
2017-07-09T20:03:52.099Z,15.30
2017-07-09T20:06:20.492Z,16.10
2017-07-09T20:08:48.096Z,14.60
2017-07-09T20:11:17.866Z,13.90
2017-07-09T20:13:47.020Z,12.80
2017-07-09T20:16:18.698Z,10.90
2017-07-09T20:18:59.032Z,13.60
2017-07-09T20:21:31.500Z,14.17
2017-07-09T20:23:59.090Z,12.20
2017-07-09T20:30:01.220Z,13.30
2017-07-09T20:32:29.373Z,15.80
2017-07-09T20:34:57.332Z,10.57
2017-07-09T20:37:32.485Z,16.90
2017-07-09T20:40:02.298Z,13.13
2017-07-09T20:42:29.805Z,13.60
2017-07-09T20:44:57.396Z,14.43
2017-07-09T20:47:26.143Z,12.27
2017-07-09T20:49:53.723Z,14.80
2017-07-09T20:52:22.354Z,14.23
2017-07-09T20:54:50.034Z,13.70
2017-07-09T20:57:17.634Z,13.47
2017-07-09T20:59:46.204Z,10.73
2017-07-09T21:02:13.697Z,11.20
2017-07-09T21:04:41.321Z,12.10
2017-07-09T21:07:12.701Z,12.10
2017-07-09T21:09:40.393Z,18.23
2017-07-09T21:12:08.033Z,14.00
2017-07-09T21:14:35.565Z,16.27
2017-07-09T21:17:09.093Z,13.83
2017-07-09T21:19:38.423Z,13.23
2017-07-09T21:22:08.238Z,21.30
2017-07-09T21:25:25.355Z,15.87
2017-07-09T21:28:10.534Z,11.57
2017-07-09T21:30:38.370Z,12.17
2017-07-09T21:33:13.263Z,11.50
2017-07-09T21:35:42.709Z,13.20
2017-07-09T21:38:11.537Z,12.17
2017-07-09T21:40:44.674Z,15.27
2017-07-09T21:43:13.332Z,12.03
2017-07-09T21:45:40.937Z,15.70
2017-07-09T21:48:08.484Z,13.63
2017-07-09T21:50:36.051Z,13.23
2017-07-09T21:53:03.705Z,12.73
2017-07-09T21:55:31.243Z,17.83
2017-07-09T21:58:06.542Z,17.40
2017-07-09T22:00:45.855Z,15.80
2017-07-09T22:03:13.397Z,14.50
2017-07-09T22:05:40.921Z,16.90
2017-07-09T22:08:08.462Z,15.73
2017-07-09T22:10:35.992Z,19.17
2017-07-09T22:13:04.161Z,15.00
2017-07-09T22:15:31.715Z,13.77
2017-07-09T22:18:05.527Z,23.90
2017-07-09T22:20:52.092Z,14.57
2017-07-09T22:23:19.694Z,14.37
2017-07-09T22:25:48.072Z,13.07
2017-07-09T22:28:15.558Z,15.67
2017-07-09T22:30:43.807Z,16.80
2017-07-09T22:33:11.295Z,16.93
2017-07-09T22:35:38.948Z,13.40
2017-07-09T22:38:08.528Z,15.07
2017-07-09T22:40:37.882Z,18.97
2017-07-09T22:43:06.249Z,16.30
2017-07-09T22:45:33.735Z,13.90
2017-07-09T22:48:02.508Z,14.93
2017-07-09T22:50:30.035Z,15.00
2017-07-09T22:52:57.728Z,17.77
2017-07-09T22:55:25.252Z,12.33
2017-07-09T22:57:52.702Z,12.63
2017-07-09T23:00:20.211Z,15.50
2017-07-09T23:02:47.695Z,17.60
2017-07-09T23:05:15.177Z,15.87
2017-07-09T23:07:43.560Z,16.40
2017-07-09T23:10:11.043Z,14.70
2017-07-09T23:12:38.620Z,14.83
2017-07-09T23:15:06.181Z,16.67
2017-07-09T23:17:33.725Z,15.30
2017-07-09T23:20:01.211Z,15.80
2017-07-09T23:22:29.785Z,14.10
2017-07-09T23:24:59.616Z,16.97
2017-07-09T23:27:28.112Z,19.20
2017-07-09T23:29:55.726Z,19.73
2017-07-09T23:32:24.002Z,16.47
2017-07-09T23:34:51.854Z,14.57
2017-07-09T23:37:19.489Z,15.90
2017-07-09T23:39:48.278Z,14.83
2017-07-09T23:42:21.563Z,15.83
2017-07-09T23:44:50.002Z,15.00
2017-07-09T23:47:17.530Z,15.00
2017-07-09T23:49:50.295Z,16.87
2017-07-09T23:52:17.933Z,14.73
2017-07-09T23:54:45.426Z,18.17
2017-07-09T23:57:12.900Z,18.53
2017-07-09T23:59:40.440Z,16.23
